Time;durP1;ratioP1;P1;durP2;ratioP2;P2;SDS_P1;SDS_P2;PMS_P1;PMS_P2;Temp;Humidity;BMP_temperature;BMP_pressure;BME280_temperature;BME280_humidity;BME280_pressure;Samples;Min_cycle;Max_cycle;Signal;HPM_P1;HPM_P2
2021/01/17 00:02:01;;;;;;;30.83;11.75;;;6.30;60.30;;;;;;7667039;23;20040;-76
2021/01/17 00:05:07;;;;;;;25.00;10.88;;;6.30;60.60;;;;;;7667377;23;20424;-77
2021/01/17 00:08:09;;;;;;;22.70;10.35;;;6.30;60.80;;;;;;7667904;23;20051;-76
2021/01/17 00:11:15;;;;;;;25.48;11.20;;;6.20;61.00;;;;;;7666172;23;20017;-76
2021/01/17 00:14:16;;;;;;;35.50;11.50;;;6.20;61.30;;;;;;7622092;23;20032;-77
2021/01/17 00:17:18;;;;;;;23.73;11.65;;;6.10;61.70;;;;;;7672894;23;20021;-76
2021/01/17 00:20:21;;;;;;;25.83;10.43;;;6.10;62.00;;;;;;7678712;23;20020;-76
2021/01/17 00:23:22;;;;;;;21.45;9.25;;;6.00;62.40;;;;;;7657207;23;20012;-75
2021/01/17 00:26:23;;;;;;;25.02;11.25;;;6.00;62.60;;;;;;7682489;23;20024;-76
2021/01/17 00:29:25;;;;;;;21.33;9.38;;;5.90;63.00;;;;;;7652775;23;20009;-77
2021/01/17 00:32:26;;;;;;;24.30;11.15;;;5.80;63.20;;;;;;7671322;23;20015;-75
2021/01/17 00:35:30;;;;;;;25.23;11.95;;;5.80;63.50;;;;;;7689191;23;20084;-77
2021/01/17 00:38:31;;;;;;;30.42;12.50;;;5.90;63.70;;;;;;7654864;23;20017;-78
2021/01/17 00:41:32;;;;;;;20.35;10.00;;;5.90;63.70;;;;;;7660505;23;20286;-75
2021/01/17 00:44:33;;;;;;;24.83;10.77;;;5.90;63.90;;;;;;7678275;23;20009;-75
2021/01/17 00:47:34;;;;;;;19.08;9.32;;;5.90;64.00;;;;;;7690263;23;20104;-75
2021/01/17 00:50:35;;;;;;;20.65;9.55;;;5.90;64.10;;;;;;7689696;23;20062;-75
2021/01/17 00:53:40;;;;;;;21.05;9.45;;;5.80;64.20;;;;;;7640405;23;20361;-76
2021/01/17 00:56:41;;;;;;;23.27;10.23;;;5.80;64.40;;;;;;7645225;23;20338;-75
2021/01/17 00:59:43;;;;;;;28.42;10.13;;;5.80;64.60;;;;;;7652410;23;20016;-76
2021/01/17 01:02:44;;;;;;;17.20;8.23;;;5.80;64.80;;;;;;7676738;23;20009;-76
2021/01/17 01:05:45;;;;;;;23.17;9.25;;;5.80;64.90;;;;;;7677861;23;20489;-76
2021/01/17 01:08:46;;;;;;;19.63;7.68;;;5.70;64.80;;;;;;7655489;23;20036;-76
2021/01/17 01:11:48;;;;;;;21.65;8.35;;;5.70;65.00;;;;;;7669744;23;20013;-76
2021/01/17 01:14:50;;;;;;;13.93;7.18;;;5.70;65.30;;;;;;7652257;23;20017;-76
2021/01/17 01:17:51;;;;;;;18.75;7.63;;;5.60;65.60;;;;;;7676182;23;20408;-76
2021/01/17 01:20:51;;;;;;;16.17;6.80;;;5.60;65.80;;;;;;7677279;23;20092;-77
2021/01/17 01:23:52;;;;;;;21.83;8.23;;;5.60;66.00;;;;;;7652494;23;20012;-77
2021/01/17 01:26:53;;;;;;;16.13;7.47;;;5.60;66.00;;;;;;7678258;23;20028;-75
2021/01/17 01:29:54;;;;;;;15.55;6.47;;;5.60;66.20;;;;;;7652189;23;20024;-75
2021/01/17 01:32:55;;;;;;;18.40;8.20;;;5.60;66.30;;;;;;7676757;23;20025;-76
2021/01/17 01:35:56;;;;;;;16.02;8.00;;;5.60;66.40;;;;;;7676912;23;20309;-75
2021/01/17 01:38:57;;;;;;;15.10;6.93;;;5.60;66.50;;;;;;7676514;23;20278;-76
2021/01/17 01:42:06;;;;;;;14.93;7.30;;;5.60;66.70;;;;;;7677172;23;20025;-76
2021/01/17 01:45:09;;;;;;;12.20;6.40;;;5.50;66.70;;;;;;7675137;23;20017;-77
2021/01/17 01:48:10;;;;;;;11.75;5.38;;;5.60;66.70;;;;;;7650290;23;20020;-77
2021/01/17 01:51:16;;;;;;;15.38;6.97;;;5.60;66.70;;;;;;7676150;23;20345;-76
2021/01/17 01:54:17;;;;;;;11.02;5.93;;;5.60;66.80;;;;;;7676120;23;20036;-75
2021/01/17 01:57:18;;;;;;;9.55;5.35;;;5.60;66.70;;;;;;7619012;23;20013;-77
2021/01/17 02:00:20;;;;;;;11.48;5.57;;;5.70;66.80;;;;;;7639473;23;20021;-76
2021/01/17 02:03:21;;;;;;;8.40;5.03;;;5.70;66.60;;;;;;7615154;23;20385;-76
2021/01/17 02:06:23;;;;;;;11.75;5.28;;;5.80;66.50;;;;;;7639742;23;20017;-75
2021/01/17 02:09:30;;;;;;;11.95;5.55;;;5.80;66.40;;;;;;7639905;23;20501;-77
2021/01/17 02:12:43;;;;;;;14.40;5.90;;;5.70;66.40;;;;;;7615303;23;20032;-77
2021/01/17 02:15:47;;;;;;;15.77;6.38;;;5.70;66.60;;;;;;7649350;23;20428;-77
2021/01/17 02:18:52;;;;;;;13.23;6.05;;;5.70;66.60;;;;;;7676546;23;20013;-77
2021/01/17 02:21:58;;;;;;;9.13;5.03;;;5.70;66.60;;;;;;7677505;23;20024;-76
2021/01/17 02:25:09;;;;;;;9.77;5.25;;;5.80;66.60;;;;;;7675418;23;20333;-76
2021/01/17 02:28:14;;;;;;;10.57;4.80;;;5.80;66.50;;;;;;7649806;23;20156;-75
2021/01/17 02:31:17;;;;;;;12.70;5.72;;;5.80;66.50;;;;;;7676359;23;20433;-76
2021/01/17 02:34:19;;;;;;;10.60;4.97;;;5.80;66.50;;;;;;7676121;23;20343;-76
2021/01/17 02:37:38;;;;;;;9.00;4.22;;;5.80;66.50;;;;;;7676487;23;20017;-76
2021/01/17 02:40:48;;;;;;;10.27;5.00;;;5.80;66.50;;;;;;7675550;23;20495;-76
2021/01/17 02:43:50;;;;;;;10.23;4.22;;;5.80;66.70;;;;;;7676312;23;20020;-76
2021/01/17 02:46:51;;;;;;;13.77;5.60;;;5.80;66.80;;;;;;7676058;23;20013;-76
2021/01/17 02:49:53;;;;;;;14.68;6.03;;;5.80;66.80;;;;;;7674555;23;20020;-75
2021/01/17 02:53:13;;;;;;;12.77;5.68;;;5.80;66.80;;;;;;7686530;23;20044;-76
2021/01/17 02:56:18;;;;;;;16.40;5.93;;;5.80;66.80;;;;;;7663642;23;20285;-74
2021/01/17 02:59:24;;;;;;;15.05;6.32;;;5.80;67.10;;;;;;7687693;23;20080;-77
2021/01/17 03:02:41;;;;;;;11.45;5.53;;;5.70;67.20;;;;;;7715162;23;20023;-76
2021/01/17 03:05:44;;;;;;;9.35;4.75;;;5.80;67.20;;;;;;7689344;23;20315;-76
2021/01/17 03:08:44;;;;;;;12.77;5.78;;;5.80;67.20;;;;;;7688695;23;20041;-77
2021/01/17 03:11:45;;;;;;;12.57;5.68;;;5.80;67.20;;;;;;7687756;23;20496;-77
2021/01/17 03:14:49;;;;;;;9.07;4.45;;;5.80;67.40;;;;;;7714305;23;20316;-77
2021/01/17 03:17:51;;;;;;;10.23;4.47;;;5.80;67.50;;;;;;7688279;23;20494;-77
2021/01/17 03:20:52;;;;;;;9.65;4.60;;;5.80;67.40;;;;;;7688027;23;20032;-74
2021/01/17 03:23:53;;;;;;;7.78;4.07;;;5.80;67.40;;;;;;7688377;23;20297;-77
2021/01/17 03:26:54;;;;;;;13.75;4.80;;;5.80;67.20;;;;;;7687834;23;20028;-77
2021/01/17 03:29:55;;;;;;;12.25;5.72;;;5.80;67.20;;;;;;7713555;23;20020;-76
2021/01/17 03:37:18;;;;;;;;;;;5.80;67.40;;;;;;7711779;23;20025;-75
2021/01/17 03:40:19;;;;;;;8.85;4.07;;;5.70;67.50;;;;;;7712103;23;21399;-75
2021/01/17 03:43:20;;;;;;;9.15;4.82;;;5.60;67.60;;;;;;7688287;23;20308;-76
2021/01/17 03:46:21;;;;;;;12.73;5.18;;;5.60;67.60;;;;;;7662115;23;20030;-76
2021/01/17 03:49:22;;;;;;;10.63;5.05;;;5.60;67.80;;;;;;7713713;23;20344;-76
2021/01/17 03:52:23;;;;;;;10.23;4.90;;;5.60;68.70;;;;;;7713666;23;20021;-75
2021/01/17 03:55:24;;;;;;;9.70;4.45;;;5.60;67.90;;;;;;7687743;23;20412;-76
2021/01/17 03:58:25;;;;;;;17.05;6.85;;;5.70;68.00;;;;;;7687422;23;20066;-75
2021/01/17 04:01:26;;;;;;;16.70;6.75;;;5.70;68.00;;;;;;7711259;23;20032;-75
2021/01/17 04:04:27;;;;;;;20.05;7.22;;;5.70;68.00;;;;;;7705504;23;20009;-76
2021/01/17 04:07:28;;;;;;;20.33;8.93;;;5.70;68.00;;;;;;7705423;23;20622;-76
2021/01/17 04:10:29;;;;;;;20.52;8.93;;;5.80;68.00;;;;;;7679729;23;20017;-77
2021/01/17 04:13:30;;;;;;;17.48;7.95;;;5.80;68.00;;;;;;7679884;23;20663;-76
2021/01/17 04:16:31;;;;;;;19.63;8.00;;;5.70;68.00;;;;;;7679840;23;20027;-75
2021/01/17 04:19:32;;;;;;;15.05;7.85;;;5.70;68.10;;;;;;7671853;23;20051;-76
2021/01/17 04:22:36;;;;;;;16.85;8.05;;;5.80;68.20;;;;;;7671452;23;20078;-75
2021/01/17 04:25:37;;;;;;;20.77;8.90;;;5.80;68.10;;;;;;7671984;23;20029;-76
2021/01/17 04:28:38;;;;;;;17.02;7.80;;;5.80;68.10;;;;;;7671870;23;20031;-75
2021/01/17 04:31:44;;;;;;;24.50;10.18;;;5.80;68.10;;;;;;7675148;23;20009;-75
2021/01/17 04:34:44;;;;;;;23.73;9.77;;;5.80;68.10;;;;;;7682147;23;20328;-75
2021/01/17 04:37:45;;;;;;;19.50;9.55;;;5.80;68.30;;;;;;7680376;23;20028;-77
2021/01/17 04:40:46;;;;;;;20.63;9.10;;;5.80;68.30;;;;;;7653852;23;20475;-75
2021/01/17 04:44:09;;;;;;;18.80;8.77;;;5.80;68.20;;;;;;7705952;23;20031;-77
2021/01/17 04:47:12;;;;;;;20.67;10.07;;;5.80;68.20;;;;;;7707661;23;20031;-77
2021/01/17 04:50:17;;;;;;;21.20;8.82;;;5.80;68.90;;;;;;7713370;23;20016;-77
2021/01/17 04:53:19;;;;;;;23.50;9.45;;;5.80;68.10;;;;;;7713147;23;20021;-74
2021/01/17 04:56:26;;;;;;;17.58;7.82;;;5.80;68.10;;;;;;7687796;23;20044;-77
2021/01/17 04:59:36;;;;;;;20.77;8.40;;;5.80;68.10;;;;;;7680628;23;20020;-76
2021/01/17 05:02:47;;;;;;;17.63;8.50;;;5.90;68.10;;;;;;7704176;23;20028;-76
2021/01/17 05:06:27;;;;;;;18.23;7.07;;;5.90;67.90;;;;;;7678827;23;20012;-76
2021/01/17 05:09:31;;;;;;;17.73;8.00;;;5.90;67.90;;;;;;7628369;23;20010;-76
2021/01/17 05:12:52;;;;;;;15.80;6.45;;;5.80;67.80;;;;;;7602943;23;20177;-76
2021/01/17 05:15:56;;;;;;;15.52;6.65;;;5.80;67.90;;;;;;7578884;23;20024;-76
2021/01/17 05:18:58;;;;;;;16.92;7.72;;;5.80;67.90;;;;;;7602191;23;20025;-75
2021/01/17 05:22:03;;;;;;;17.52;6.80;;;5.80;67.90;;;;;;7596064;23;20084;-75
2021/01/17 05:25:06;;;;;;;15.45;7.55;;;5.80;68.00;;;;;;7595269;23;20022;-77
2021/01/17 05:28:07;;;;;;;18.02;7.88;;;5.80;68.20;;;;;;7594927;23;20092;-77
2021/01/17 05:31:08;;;;;;;17.88;8.07;;;5.80;68.20;;;;;;7629957;23;20508;-76
2021/01/17 05:34:12;;;;;;;18.90;9.00;;;5.80;68.10;;;;;;7603314;23;20088;-77
2021/01/17 05:37:14;;;;;;;23.70;8.38;;;5.90;68.10;;;;;;7603330;23;20029;-77
2021/01/17 05:40:16;;;;;;;23.75;9.57;;;5.90;68.00;;;;;;7603359;23;20021;-75
2021/01/17 05:43:17;;;;;;;20.30;7.50;;;5.90;67.90;;;;;;7607737;23;20454;-77
2021/01/17 05:46:18;;;;;;;16.58;7.85;;;6.00;67.80;;;;;;7676995;23;20033;-77
2021/01/17 05:49:24;;;;;;;17.55;7.53;;;6.00;67.60;;;;;;7704712;23;20016;-76
2021/01/17 05:52:25;;;;;;;22.80;9.00;;;5.90;67.50;;;;;;7684771;23;20031;-75
2021/01/17 05:55:40;;;;;;;21.00;8.90;;;5.90;67.60;;;;;;7662322;23;20420;-76
2021/01/17 05:58:44;;;;;;;24.73;9.77;;;5.90;67.70;;;;;;7685574;23;20043;-76
2021/01/17 06:01:46;;;;;;;24.33;10.27;;;6.00;67.70;;;;;;7686666;23;20147;-76
2021/01/17 06:04:55;;;;;;;23.35;9.60;;;6.00;67.60;;;;;;7712997;23;20055;-76
2021/01/17 06:07:57;;;;;;;24.92;10.80;;;6.00;67.60;;;;;;7712549;23;20016;-75
2021/01/17 06:11:12;;;;;;;26.00;10.50;;;5.90;67.50;;;;;;7686486;23;20027;-76
2021/01/17 06:14:27;;;;;;;23.10;9.43;;;6.00;67.60;;;;;;7686449;23;20304;-75
2021/01/17 06:17:30;;;;;;;20.48;9.77;;;5.90;67.70;;;;;;7686587;23;20021;-75
2021/01/17 06:20:33;;;;;;;21.67;10.32;;;5.90;67.70;;;;;;7686478;23;20124;-75
2021/01/17 06:23:35;;;;;;;24.40;10.88;;;5.90;67.70;;;;;;7661956;23;20008;-75
2021/01/17 06:26:39;;;;;;;17.58;9.15;;;6.00;67.70;;;;;;7685628;23;20380;-76
2021/01/17 06:29:43;;;;;;;20.67;9.10;;;6.00;67.70;;;;;;7684344;23;20047;-76
2021/01/17 06:32:48;;;;;;;21.10;9.80;;;6.10;67.70;;;;;;7705616;23;20357;-76
2021/01/17 06:35:49;;;;;;;25.08;10.73;;;6.10;67.50;;;;;;7680239;23;20020;-76
2021/01/17 06:38:51;;;;;;;27.08;10.05;;;6.10;67.30;;;;;;7722707;23;20017;-76
2021/01/17 06:41:57;;;;;;;27.80;12.25;;;6.20;67.30;;;;;;7713933;23;20020;-76
2021/01/17 06:44:58;;;;;;;31.63;12.15;;;6.20;67.10;;;;;;7680420;23;20017;-76
2021/01/17 06:47:59;;;;;;;26.75;12.18;;;6.30;67.00;;;;;;7681684;23;20040;-76
2021/01/17 06:51:20;;;;;;;31.73;12.82;;;6.30;67.10;;;;;;7681080;23;20020;-75
2021/01/17 06:54:30;;;;;;;28.58;13.00;;;6.30;66.90;;;;;;7677819;23;20034;-75
2021/01/17 06:57:34;;;;;;;28.35;12.40;;;6.30;66.80;;;;;;7677373;23;20017;-75
2021/01/17 07:00:35;;;;;;;27.10;12.20;;;6.30;66.80;;;;;;7702548;23;20028;-76
2021/01/17 07:04:15;;;;;;;30.17;13.38;;;6.20;66.70;;;;;;7678299;23;20017;-78
2021/01/17 07:07:29;;;;;;;25.83;11.07;;;6.20;66.70;;;;;;7602486;23;20092;-76
2021/01/17 07:10:58;;;;;;;24.40;10.95;;;6.20;66.80;;;;;;7628526;23;20512;-76
2021/01/17 07:14:06;;;;;;;35.63;13.43;;;6.20;66.80;;;;;;7604268;23;20073;-76
2021/01/17 07:17:09;;;;;;;31.95;12.68;;;6.30;66.80;;;;;;7630523;23;20088;-76
2021/01/17 07:20:14;;;;;;;26.58;11.27;;;6.20;66.70;;;;;;7592973;23;20021;-76
2021/01/17 07:23:18;;;;;;;29.50;12.40;;;6.30;66.70;;;;;;7604897;23;20317;-76
2021/01/17 07:26:23;;;;;;;28.45;12.40;;;6.30;66.70;;;;;;7606435;23;20440;-76
2021/01/17 07:29:27;;;;;;;26.00;11.05;;;6.30;66.60;;;;;;7631040;23;20043;-76
2021/01/17 07:32:33;;;;;;;23.63;11.07;;;6.30;66.50;;;;;;7591441;23;20013;-77
2021/01/17 07:35:45;;;;;;;21.05;9.80;;;6.30;66.60;;;;;;7616026;23;20013;-74
2021/01/17 07:38:54;;;;;;;32.05;11.60;;;6.30;66.60;;;;;;7615937;23;20100;-76
2021/01/17 07:41:58;;;;;;;21.92;10.10;;;6.20;66.70;;;;;;7614511;23;20022;-75
2021/01/17 07:45:28;;;;;;;24.40;11.02;;;6.20;66.80;;;;;;7689797;23;20020;-76
2021/01/17 07:48:30;;;;;;;22.98;10.13;;;6.20;66.90;;;;;;7716600;23;20013;-77
2021/01/17 07:51:31;;;;;;;27.50;11.25;;;6.20;67.00;;;;;;7604654;23;20024;-77
2021/01/17 07:54:35;;;;;;;24.30;10.48;;;6.20;67.00;;;;;;7694786;23;20300;-75
2021/01/17 07:57:36;;;;;;;21.38;9.57;;;6.20;67.10;;;;;;7715344;23;20313;-77
2021/01/17 08:00:38;;;;;;;27.33;11.70;;;6.20;67.10;;;;;;7712193;23;20020;-75
2021/01/17 08:04:16;;;;;;;32.00;12.85;;;6.20;67.00;;;;;;7685545;23;20306;-77
2021/01/17 08:07:33;;;;;;;28.05;12.48;;;6.20;67.10;;;;;;7665280;23;20083;-77
2021/01/17 08:10:37;;;;;;;32.50;12.75;;;6.20;67.00;;;;;;7674316;23;20016;-76
2021/01/17 08:13:42;;;;;;;31.30;13.30;;;6.30;67.10;;;;;;7646199;23;20016;-78
2021/01/17 08:17:11;;;;;;;27.17;11.48;;;6.30;67.10;;;;;;7675988;23;20081;-76
2021/01/17 08:20:27;;;;;;;28.00;12.23;;;6.30;67.00;;;;;;7675318;23;20017;-76
2021/01/17 08:23:28;;;;;;;25.25;11.85;;;6.30;66.90;;;;;;7643180;23;20013;-77
2021/01/17 08:26:57;;;;;;;28.35;12.23;;;6.40;66.90;;;;;;7692215;23;20040;-77
2021/01/17 08:30:00;;;;;;;27.77;12.73;;;6.40;66.80;;;;;;7662648;23;20084;-77
2021/01/17 08:33:11;;;;;;;38.83;13.50;;;6.40;66.90;;;;;;7637133;23;20032;-76
2021/01/17 08:36:26;;;;;;;29.58;13.90;;;6.50;67.60;;;;;;7691064;23;20008;-76
2021/01/17 08:39:45;;;;;;;39.05;14.77;;;6.60;66.70;;;;;;7672183;23;20016;-77
2021/01/17 08:42:57;;;;;;;30.38;13.18;;;6.60;66.50;;;;;;7671256;23;20013;-78
2021/01/17 08:45:59;;;;;;;34.03;12.88;;;6.70;66.40;;;;;;7674697;23;20028;-79
2021/01/17 08:49:01;;;;;;;25.17;11.52;;;6.70;66.30;;;;;;7685150;23;20027;-79
2021/01/17 08:52:02;;;;;;;32.17;12.70;;;6.70;65.90;;;;;;7686878;23;20021;-77
2021/01/17 08:55:03;;;;;;;27.95;12.43;;;6.70;66.00;;;;;;7682550;23;20013;-77
2021/01/17 08:58:04;;;;;;;31.20;13.40;;;6.80;66.00;;;;;;7676987;23;20021;-76
2021/01/17 09:01:06;;;;;;;31.33;14.13;;;6.90;65.90;;;;;;7661799;23;20024;-76
2021/01/17 09:04:08;;;;;;;38.10;12.02;;;6.90;65.50;;;;;;7690016;23;20048;-77
2021/01/17 09:07:34;;;;;;;37.13;14.73;;;6.90;65.30;;;;;;7689264;23;20021;-78
2021/01/17 09:10:35;;;;;;;28.10;12.02;;;6.80;65.20;;;;;;7688302;23;20023;-77
2021/01/17 09:13:36;;;;;;;30.92;14.00;;;6.90;65.30;;;;;;7687599;23;20013;-77
2021/01/17 09:17:07;;;;;;;30.25;12.82;;;6.90;65.20;;;;;;7711876;23;20023;-78
2021/01/17 09:20:14;;;;;;;26.85;12.73;;;7.00;65.20;;;;;;7687339;23;20024;-78
2021/01/17 09:23:17;;;;;;;26.13;11.13;;;7.00;65.00;;;;;;7688754;23;20017;-78
2021/01/17 09:26:18;;;;;;;27.38;11.60;;;7.10;65.00;;;;;;7662740;23;20084;-77
2021/01/17 09:29:25;;;;;;;39.53;14.57;;;7.10;64.80;;;;;;7654890;23;20027;-78
2021/01/17 09:32:27;;;;;;;27.15;12.38;;;7.20;64.70;;;;;;7703419;23;20023;-78
2021/01/17 09:35:28;;;;;;;30.60;12.95;;;7.30;64.60;;;;;;7679889;23;20564;-79
2021/01/17 09:38:31;;;;;;;27.60;12.13;;;7.40;64.30;;;;;;7680077;23;20024;-79
2021/01/17 09:41:32;;;;;;;32.78;13.13;;;7.50;64.20;;;;;;7629117;23;20139;-78
2021/01/17 09:44:35;;;;;;;28.88;11.38;;;7.60;64.20;;;;;;7700762;23;20016;-76
2021/01/17 09:47:36;;;;;;;31.00;12.63;;;7.70;63.90;;;;;;7680041;23;20020;-75
2021/01/17 09:50:37;;;;;;;32.08;12.30;;;7.70;63.60;;;;;;7648660;23;20035;-78
2021/01/17 09:53:38;;;;;;;32.15;12.93;;;7.70;63.60;;;;;;7670267;23;20024;-77
2021/01/17 09:56:41;;;;;;;29.88;12.18;;;7.80;63.60;;;;;;7651745;23;20021;-77
2021/01/17 09:59:42;;;;;;;35.00;14.77;;;7.90;63.50;;;;;;7684288;23;20021;-78
2021/01/17 10:02:44;;;;;;;28.95;12.88;;;8.00;63.10;;;;;;7689530;23;20020;-78
2021/01/17 10:05:46;;;;;;;37.28;13.60;;;8.00;62.80;;;;;;7673082;23;20079;-77
2021/01/17 10:08:46;;;;;;;33.17;13.32;;;8.00;62.70;;;;;;7671452;23;20430;-77
2021/01/17 10:11:59;;;;;;;33.85;13.80;;;8.00;62.80;;;;;;7674446;23;20019;-77
2021/01/17 10:15:00;;;;;;;36.15;14.85;;;8.10;63.00;;;;;;7686155;23;20087;-77
2021/01/17 10:18:02;;;;;;;34.17;12.00;;;8.30;62.80;;;;;;7641639;23;20005;-79
2021/01/17 10:21:03;;;;;;;35.00;13.85;;;8.40;62.40;;;;;;7641874;23;20099;-78
2021/01/17 10:24:05;;;;;;;28.13;12.23;;;8.50;62.00;;;;;;7643860;23;20013;-80
2021/01/17 10:27:08;;;;;;;31.15;12.50;;;8.70;61.80;;;;;;7695038;23;20016;-79
2021/01/17 10:30:20;;;;;;;33.47;13.25;;;8.70;62.40;;;;;;7691053;23;20708;-81
2021/01/17 10:33:21;;;;;;;29.58;11.52;;;8.80;61.20;;;;;;7667968;23;20100;-81
2021/01/17 10:36:22;;;;;;;32.70;14.40;;;8.80;60.90;;;;;;7590710;23;20024;-81
2021/01/17 10:39:25;;;;;;;29.98;13.25;;;8.80;60.40;;;;;;7667295;23;20407;-82
2021/01/17 10:42:31;;;;;;;39.88;15.70;;;8.70;60.60;;;;;;7674014;23;20012;-79
2021/01/17 10:45:34;;;;;;;33.78;13.48;;;8.70;60.70;;;;;;7700995;23;20071;-79
2021/01/17 10:48:45;;;;;;;35.17;14.82;;;8.60;60.80;;;;;;7656830;23;20016;-80
2021/01/17 10:51:52;;;;;;;35.58;14.60;;;8.40;60.90;;;;;;7657018;23;20016;-79
2021/01/17 10:54:54;;;;;;;38.63;15.98;;;8.40;61.40;;;;;;7684144;23;20022;-78
2021/01/17 10:57:56;;;;;;;35.20;14.77;;;8.40;61.50;;;;;;7658510;23;20043;-79
2021/01/17 11:00:58;;;;;;;36.35;14.70;;;8.40;61.60;;;;;;7660185;23;20027;-79
2021/01/17 11:04:00;;;;;;;31.02;13.98;;;8.40;61.50;;;;;;7692359;23;20023;-80
2021/01/17 11:07:02;;;;;;;30.00;12.50;;;8.50;61.40;;;;;;7689826;23;20420;-80
2021/01/17 11:10:14;;;;;;;43.47;15.18;;;8.40;61.40;;;;;;7677500;23;22832;-80
2021/01/17 11:13:16;;;;;;;40.35;15.55;;;8.30;61.30;;;;;;7677379;23;20016;-81
2021/01/17 11:16:31;;;;;;;41.17;16.17;;;8.30;61.40;;;;;;7673724;23;20027;-80
2021/01/17 11:19:38;;;;;;;33.58;13.57;;;8.30;61.50;;;;;;7671165;23;20016;-81
2021/01/17 11:22:40;;;;;;;29.65;12.82;;;8.40;61.40;;;;;;7695810;23;20040;-79
2021/01/17 11:25:41;;;;;;;28.25;11.60;;;8.50;61.30;;;;;;7643804;23;20394;-77
2021/01/17 11:28:54;;;;;;;24.92;11.85;;;8.70;60.90;;;;;;7691398;23;20020;-77
2021/01/17 11:31:55;;;;;;;25.60;10.88;;;8.80;60.60;;;;;;7634183;23;20403;-78
2021/01/17 11:34:56;;;;;;;29.25;12.15;;;9.00;60.40;;;;;;7660090;23;20013;-76
2021/01/17 11:37:57;;;;;;;25.17;11.10;;;9.10;60.00;;;;;;7691474;23;20012;-76
2021/01/17 11:41:07;;;;;;;31.42;13.80;;;9.10;59.80;;;;;;7675455;23;20042;-77
2021/01/17 11:44:14;;;;;;;30.33;13.48;;;9.10;59.80;;;;;;7676806;23;20027;-78
2021/01/17 11:47:19;;;;;;;32.08;13.85;;;9.10;59.80;;;;;;7671692;23;20400;-79
2021/01/17 11:50:20;;;;;;;32.28;14.18;;;9.00;59.90;;;;;;7675631;23;20304;-81
2021/01/17 11:53:26;;;;;;;31.40;13.40;;;9.10;59.90;;;;;;7678909;23;20411;-79
2021/01/17 11:56:27;;;;;;;30.02;14.05;;;9.10;59.80;;;;;;7680574;23;20501;-78
2021/01/17 11:59:35;;;;;;;47.15;19.67;;;9.10;59.80;;;;;;7682291;23;20020;-75
2021/01/17 12:02:40;;;;;;;28.88;13.27;;;9.10;59.90;;;;;;7683161;23;20012;-78
2021/01/17 12:05:41;;;;;;;34.58;13.57;;;9.10;59.80;;;;;;7709526;23;20436;-79
2021/01/17 12:08:55;;;;;;;21.25;9.77;;;9.10;59.70;;;;;;7655389;23;20076;-77
2021/01/17 12:11:55;;;;;;;22.98;10.90;;;9.20;59.60;;;;;;7675276;23;20012;-77
2021/01/17 12:14:59;;;;;;;28.90;12.15;;;9.30;59.50;;;;;;7675150;23;20019;-78
2021/01/17 12:18:00;;;;;;;35.45;15.18;;;9.30;59.30;;;;;;7671497;23;20028;-75
2021/01/17 12:21:01;;;;;;;33.97;14.85;;;9.40;59.20;;;;;;7675164;23;20028;-79
2021/01/17 12:24:05;;;;;;;29.73;12.85;;;9.40;59.10;;;;;;7674029;23;20328;-77
2021/01/17 12:27:06;;;;;;;39.95;14.15;;;9.40;59.10;;;;;;7675246;23;20371;-77
2021/01/17 12:30:08;;;;;;;37.28;15.00;;;9.40;59.00;;;;;;7669133;23;20062;-77
2021/01/17 12:33:09;;;;;;;25.95;12.80;;;9.40;59.10;;;;;;7641923;23;20367;-75
2021/01/17 12:36:11;;;;;;;35.05;13.88;;;9.40;59.30;;;;;;7665194;23;20013;-76
2021/01/17 12:39:15;;;;;;;35.92;16.33;;;9.30;59.10;;;;;;7672503;23;20017;-77
2021/01/17 12:42:16;;;;;;;41.35;15.05;;;9.30;59.30;;;;;;7701311;23;20083;-79
2021/01/17 12:45:17;;;;;;;37.33;15.73;;;9.30;59.40;;;;;;7675140;23;20013;-80
2021/01/17 12:48:18;;;;;;;33.72;14.77;;;9.30;59.40;;;;;;7682464;23;20024;-77
2021/01/17 12:51:19;;;;;;;31.40;12.93;;;9.30;59.50;;;;;;7682660;23;20017;-79
2021/01/17 12:54:20;;;;;;;30.65;12.85;;;9.30;59.60;;;;;;7709186;23;20545;-79
2021/01/17 12:57:21;;;;;;;30.55;14.18;;;9.30;59.60;;;;;;7683009;23;20016;-77
2021/01/17 13:00:22;;;;;;;34.72;14.07;;;9.20;59.70;;;;;;7692318;23;20013;-75
2021/01/17 13:03:23;;;;;;;39.40;15.27;;;9.20;59.80;;;;;;7668480;23;20020;-76
2021/01/17 13:06:24;;;;;;;36.25;14.88;;;9.20;59.90;;;;;;7691513;23;20009;-76
2021/01/17 13:09:25;;;;;;;39.78;15.82;;;9.30;59.90;;;;;;7691297;23;20031;-79
2021/01/17 13:12:26;;;;;;;40.03;16.63;;;9.30;59.80;;;;;;7716928;23;20301;-76
2021/01/17 13:15:29;;;;;;;34.60;14.27;;;9.30;60.00;;;;;;7690251;23;20016;-76
2021/01/17 13:18:30;;;;;;;32.90;13.38;;;9.30;59.90;;;;;;7660290;23;20012;-74
2021/01/17 13:21:31;;;;;;;29.85;12.02;;;9.20;59.90;;;;;;7645790;23;20059;-78
2021/01/17 13:24:32;;;;;;;29.83;12.65;;;9.20;59.90;;;;;;7656666;23;20118;-80
2021/01/17 13:27:33;;;;;;;29.63;12.57;;;9.20;60.00;;;;;;7656076;23;20016;-78
2021/01/17 13:30:35;;;;;;;31.08;13.23;;;9.10;60.10;;;;;;7678672;23;20020;-77
2021/01/17 13:33:37;;;;;;;30.50;13.63;;;9.10;60.30;;;;;;7677724;23;20027;-80
2021/01/17 13:36:37;;;;;;;28.45;12.10;;;9.00;60.40;;;;;;7674011;23;20436;-77
2021/01/17 13:39:38;;;;;;;28.73;12.85;;;9.10;60.50;;;;;;7672722;23;20020;-74
2021/01/17 13:42:39;;;;;;;34.30;13.35;;;9.10;60.50;;;;;;7649269;23;20025;-73
2021/01/17 13:45:40;;;;;;;32.63;13.80;;;9.10;60.60;;;;;;7634668;23;20039;-72
2021/01/17 13:48:41;;;;;;;38.08;15.32;;;9.10;60.60;;;;;;7642737;23;20112;-72
2021/01/17 13:51:43;;;;;;;29.15;14.15;;;9.10;60.80;;;;;;7672944;23;20013;-73
2021/01/17 13:54:44;;;;;;;30.25;12.98;;;9.00;61.10;;;;;;7673086;23;20020;-73
2021/01/17 13:57:46;;;;;;;33.00;14.30;;;8.90;61.40;;;;;;7687043;23;20031;-74
2021/01/17 14:00:46;;;;;;;38.28;15.25;;;8.90;61.90;;;;;;7611421;23;20021;-75
2021/01/17 14:03:47;;;;;;;29.05;12.55;;;8.80;62.10;;;;;;7633321;23;20020;-77
2021/01/17 14:06:48;;;;;;;28.38;13.38;;;8.70;62.40;;;;;;7650144;23;20367;-74
2021/01/17 14:09:50;;;;;;;35.50;15.75;;;8.70;62.80;;;;;;7644755;23;20023;-72
2021/01/17 14:12:51;;;;;;;37.30;15.35;;;8.70;63.00;;;;;;7640326;23;20071;-74
2021/01/17 14:15:52;;;;;;;37.10;15.70;;;8.70;63.10;;;;;;7640330;23;20127;-73
2021/01/17 14:18:53;;;;;;;33.83;14.10;;;8.60;63.20;;;;;;7673422;23;20027;-72
2021/01/17 14:21:54;;;;;;;38.85;16.30;;;8.50;63.20;;;;;;7649209;23;20034;-72
2021/01/17 14:24:55;;;;;;;38.40;16.10;;;8.50;63.40;;;;;;7633161;23;20020;-72
2021/01/17 14:27:56;;;;;;;40.47;16.08;;;8.50;63.70;;;;;;7636016;23;20032;-73
2021/01/17 14:30:57;;;;;;;31.35;13.85;;;8.40;63.80;;;;;;7636676;23;20013;-73
2021/01/17 14:34:00;;;;;;;43.47;17.50;;;8.40;64.00;;;;;;7661519;23;20020;-73
2021/01/17 14:37:01;;;;;;;41.30;17.45;;;8.40;64.20;;;;;;7635185;23;20405;-73
2021/01/17 14:40:07;;;;;;;28.88;12.68;;;8.20;64.10;;;;;;7634471;23;20032;-77
2021/01/17 14:43:08;;;;;;;31.08;12.98;;;8.30;64.40;;;;;;7672684;23;20327;-73
2021/01/17 14:46:08;;;;;;;23.33;10.90;;;8.20;64.50;;;;;;7610054;23;20068;-74
2021/01/17 14:49:12;;;;;;;29.48;13.45;;;8.10;65.30;;;;;;7665386;23;20712;-76
2021/01/17 14:52:13;;;;;;;38.90;14.65;;;8.00;65.90;;;;;;7628795;23;20017;-77
2021/01/17 14:55:15;;;;;;;32.00;12.77;;;7.90;66.10;;;;;;7651682;23;20056;-77
2021/01/17 14:58:16;;;;;;;32.47;14.98;;;7.90;66.20;;;;;;7653975;23;20039;-76
2021/01/17 15:01:23;;;;;;;30.92;13.07;;;7.70;66.30;;;;;;7652291;23;20021;-76
2021/01/17 15:04:25;;;;;;;33.67;13.43;;;7.70;66.60;;;;;;7652400;23;20738;-78
2021/01/17 15:07:26;;;;;;;36.97;14.82;;;7.70;66.60;;;;;;7651368;23;20028;-80
2021/01/17 15:10:27;;;;;;;27.88;13.60;;;7.70;66.90;;;;;;7656593;23;20013;-86
2021/01/17 15:13:31;;;;;;;34.45;14.25;;;7.60;67.00;;;;;;7662358;23;20009;-87
2021/01/17 15:16:32;;;;;;;29.50;13.48;;;7.60;67.30;;;;;;7652907;23;20017;-86
2021/01/17 15:19:33;;;;;;;36.97;15.70;;;7.60;67.60;;;;;;7668865;23;20177;-84
2021/01/17 15:22:34;;;;;;;44.25;16.98;;;7.60;67.60;;;;;;7676211;23;20013;-85
2021/01/17 15:25:36;;;;;;;38.53;15.73;;;7.60;67.70;;;;;;7672016;23;20001;-87
2021/01/17 15:28:40;;;;;;;39.75;15.70;;;7.60;67.70;;;;;;7667677;23;20017;-82
2021/01/17 15:31:41;;;;;;;36.35;16.20;;;7.60;67.70;;;;;;7653054;23;20017;-86
2021/01/17 15:34:42;;;;;;;36.67;14.30;;;7.60;67.50;;;;;;7630473;23;20013;-73
2021/01/17 15:37:43;;;;;;;35.03;14.75;;;7.60;67.50;;;;;;7654246;23;20428;-86
2021/01/17 15:40:44;;;;;;;33.50;14.95;;;7.60;67.50;;;;;;7623511;23;20468;-80
2021/01/17 15:43:45;;;;;;;30.80;12.70;;;7.70;67.70;;;;;;7647945;23;20017;-82
2021/01/17 15:46:47;;;;;;;36.20;13.50;;;7.60;67.60;;;;;;7641189;23;20009;-81
2021/01/17 15:49:49;;;;;;;28.15;13.05;;;7.60;67.50;;;;;;7649889;23;20051;-80
2021/01/17 15:52:52;;;;;;;20.15;10.13;;;7.50;67.40;;;;;;7631877;23;20534;-79
2021/01/17 15:55:53;;;;;;;33.85;12.07;;;7.60;67.60;;;;;;7689677;23;20028;-78